Time;durP1;ratioP1;P1;durP2;ratioP2;P2;SDS_P1;SDS_P2;PMS_P1;PMS_P2;Temp;Humidity;BMP_temperature;BMP_pressure;BME280_temperature;BME280_humidity;BME280_pressure;Samples;Min_cycle;Max_cycle;Signal;HPM_P1;HPM_P2
2022/08/15 00:01:42;;;;;;;11.40;10.50;;;24.90;15.10;;;;;;4937162;29;20187;-74
2022/08/15 00:04:08;;;;;;;10.53;10.00;;;25.00;14.90;;;;;;4937052;28;20187;-74
2022/08/15 00:06:45;;;;;;;10.57;10.07;;;25.00;14.70;;;;;;4954114;28;20501;-74
2022/08/15 00:09:25;;;;;;;10.67;10.17;;;25.00;14.60;;;;;;4936956;28;20201;-74
2022/08/15 00:11:55;;;;;;;10.80;10.30;;;25.00;14.70;;;;;;4936993;29;20465;-74
2022/08/15 00:14:29;;;;;;;11.27;10.77;;;25.00;15.40;;;;;;4936999;29;20904;-74
2022/08/15 00:16:56;;;;;;;10.47;9.93;;;24.90;15.30;;;;;;4936816;28;20422;-74
2022/08/15 00:19:26;;;;;;;11.40;10.60;;;24.80;15.50;;;;;;4936824;29;20422;-74
2022/08/15 00:21:55;;;;;;;11.10;10.60;;;24.70;16.30;;;;;;4936742;29;20782;-74
2022/08/15 00:24:25;;;;;;;10.67;10.17;;;24.80;15.60;;;;;;4936814;29;20430;-74
2022/08/15 00:26:52;;;;;;;11.50;10.67;;;24.80;16.10;;;;;;4936825;29;20426;-74
2022/08/15 00:29:20;;;;;;;11.63;11.03;;;24.80;16.30;;;;;;4936519;29;20839;-74
2022/08/15 00:31:47;;;;;;;12.27;11.60;;;24.80;16.30;;;;;;4936496;29;20533;-74
2022/08/15 00:34:16;;;;;;;11.73;11.00;;;24.70;16.70;;;;;;4936799;28;20916;-74
2022/08/15 00:36:43;;;;;;;11.00;10.50;;;24.60;17.10;;;;;;4936758;29;20427;-74
2022/08/15 00:39:12;;;;;;;11.30;10.60;;;24.50;17.30;;;;;;4936556;28;21014;-74
2022/08/15 00:41:41;;;;;;;11.63;11.03;;;24.40;17.50;;;;;;4936488;29;20445;-74
2022/08/15 00:44:26;;;;;;;10.93;10.43;;;24.20;17.60;;;;;;4936558;28;20425;-74
2022/08/15 00:46:56;;;;;;;11.27;10.40;;;24.20;17.90;;;;;;4936703;29;20422;-74
2022/08/15 00:49:25;;;;;;;11.50;10.90;;;24.20;18.40;;;;;;4936828;29;20441;-74
2022/08/15 00:52:13;;;;;;;11.00;10.60;;;24.10;18.20;;;;;;4936096;29;20459;-74
2022/08/15 00:55:07;;;;;;;10.53;10.03;;;24.20;18.30;;;;;;4937450;29;20829;-74
2022/08/15 00:57:41;;;;;;;11.20;10.70;;;24.20;18.30;;;;;;4940235;29;20430;-74
2022/08/15 01:00:15;;;;;;;11.37;10.77;;;24.20;18.20;;;;;;4940226;28;20459;-74
2022/08/15 01:02:41;;;;;;;11.77;11.07;;;24.30;18.20;;;;;;4942599;29;20905;-74
2022/08/15 01:05:18;;;;;;;11.77;11.20;;;24.30;17.90;;;;;;4942427;29;20454;-74
2022/08/15 01:07:44;;;;;;;11.50;11.00;;;24.30;17.80;;;;;;4959023;28;20791;-74
2022/08/15 01:10:11;;;;;;;11.23;10.73;;;24.40;17.90;;;;;;4941354;29;20950;-74
2022/08/15 01:12:37;;;;;;;11.40;10.90;;;24.40;17.80;;;;;;4941894;29;20466;-74
2022/08/15 01:15:10;;;;;;;12.50;11.60;;;24.50;17.90;;;;;;4958534;28;20442;-74
2022/08/15 01:17:36;;;;;;;11.93;11.43;;;24.40;18.20;;;;;;4941883;29;20883;-74
2022/08/15 01:20:26;;;;;;;11.63;11.07;;;24.20;18.30;;;;;;4939924;28;20456;-74
2022/08/15 01:23:06;;;;;;;11.27;10.77;;;24.10;18.70;;;;;;4939673;29;20430;-74
2022/08/15 01:25:56;;;;;;;11.60;11.10;;;24.10;18.80;;;;;;4939814;29;20775;-74
2022/08/15 01:28:30;;;;;;;10.93;10.40;;;23.90;19.00;;;;;;4939645;29;20461;-74
2022/08/15 01:31:04;;;;;;;12.07;11.43;;;23.90;19.20;;;;;;4957046;29;20510;-74
2022/08/15 01:33:43;;;;;;;11.30;10.80;;;23.80;19.30;;;;;;4939501;29;20838;-74
2022/08/15 01:36:10;;;;;;;12.13;11.57;;;23.80;19.50;;;;;;4939459;29;20434;-74
2022/08/15 01:38:42;;;;;;;11.70;11.10;;;23.80;19.60;;;;;;4939503;29;20431;-74
2022/08/15 01:41:18;;;;;;;12.13;11.47;;;23.80;19.60;;;;;;4939220;29;20457;-73
2022/08/15 01:44:20;;;;;;;11.30;10.80;;;23.80;19.80;;;;;;4939749;29;20541;-74
2022/08/15 01:47:00;;;;;;;11.50;10.90;;;23.80;20.00;;;;;;4939289;29;20436;-74
2022/08/15 01:49:34;;;;;;;12.30;11.40;;;23.80;20.10;;;;;;4939349;29;20430;-74
2022/08/15 01:52:01;;;;;;;11.53;10.90;;;23.70;20.80;;;;;;4939208;28;20457;-74
2022/08/15 01:54:32;;;;;;;12.83;11.80;;;23.70;21.20;;;;;;4939285;29;20430;-74
2022/08/15 01:56:59;;;;;;;12.40;11.80;;;23.60;21.40;;;;;;4939164;28;20926;-74
2022/08/15 01:59:25;;;;;;;11.30;10.80;;;23.60;21.90;;;;;;4939260;29;20419;-74
2022/08/15 02:01:57;;;;;;;12.57;11.97;;;23.60;22.30;;;;;;4938779;29;20431;-74
2022/08/15 02:04:33;;;;;;;11.57;11.07;;;23.50;22.60;;;;;;4939030;29;20450;-74
2022/08/15 02:07:03;;;;;;;11.90;11.20;;;23.50;23.10;;;;;;4938620;28;20447;-74
2022/08/15 02:09:29;;;;;;;12.00;11.40;;;23.40;23.30;;;;;;4956431;28;20447;-74
2022/08/15 02:12:00;;;;;;;12.57;11.83;;;23.40;23.60;;;;;;4938524;29;20501;-74
2022/08/15 02:14:27;;;;;;;12.30;11.50;;;23.40;24.00;;;;;;4938980;29;20843;-74
2022/08/15 02:16:53;;;;;;;12.10;11.50;;;23.40;24.00;;;;;;4942743;29;20526;-74
2022/08/15 02:19:19;;;;;;;11.43;10.73;;;23.30;23.90;;;;;;4941438;29;20498;-74
2022/08/15 02:21:50;;;;;;;12.30;11.63;;;23.30;23.90;;;;;;4938460;29;20431;-74
2022/08/15 02:24:27;;;;;;;12.40;11.80;;;23.40;24.00;;;;;;4938771;28;20183;-74
2022/08/15 02:26:56;;;;;;;12.60;12.00;;;23.40;24.00;;;;;;4938658;29;20567;-74
2022/08/15 02:29:33;;;;;;;12.53;11.93;;;23.50;24.10;;;;;;4938415;28;20907;-74
2022/08/15 02:32:14;;;;;;;12.37;11.80;;;23.40;24.00;;;;;;4938275;28;20477;-75
2022/08/15 02:34:42;;;;;;;12.10;11.50;;;23.50;24.10;;;;;;4937471;29;20490;-74
2022/08/15 02:37:11;;;;;;;11.40;11.00;;;23.50;24.10;;;;;;4938324;28;20478;-74
2022/08/15 02:39:37;;;;;;;11.80;11.20;;;23.40;24.10;;;;;;4938175;29;20463;-74
2022/08/15 02:42:03;;;;;;;11.53;11.03;;;23.30;24.60;;;;;;4938147;28;20427;-74
2022/08/15 02:44:30;;;;;;;12.27;11.57;;;23.30;24.70;;;;;;4933976;29;20465;-74
2022/08/15 02:46:56;;;;;;;12.20;11.60;;;23.20;25.20;;;;;;4935657;29;20433;-74
2022/08/15 02:49:23;;;;;;;11.90;11.20;;;23.10;25.40;;;;;;4936393;29;20419;-74
2022/08/15 02:51:49;;;;;;;12.77;12.07;;;23.00;25.50;;;;;;4935776;29;20570;-74
2022/08/15 02:54:18;;;;;;;12.10;11.50;;;23.00;25.60;;;;;;4935977;29;20435;-74
2022/08/15 02:56:44;;;;;;;12.80;12.03;;;23.00;25.60;;;;;;4936130;29;20971;-75
2022/08/15 02:59:19;;;;;;;13.17;12.20;;;23.10;25.50;;;;;;4936199;29;20978;-74
2022/08/15 03:01:48;;;;;;;12.73;11.90;;;23.20;25.30;;;;;;4935951;29;20474;-74
2022/08/15 03:04:20;;;;;;;13.00;12.20;;;23.20;25.40;;;;;;4936223;29;20498;-74
2022/08/15 03:06:48;;;;;;;12.40;11.70;;;23.20;25.80;;;;;;4935775;29;20443;-75
2022/08/15 03:09:15;;;;;;;12.10;11.60;;;23.20;25.80;;;;;;4935769;29;20427;-74
2022/08/15 03:11:44;;;;;;;12.60;12.00;;;23.10;25.90;;;;;;4937509;29;20431;-75
2022/08/15 03:14:13;;;;;;;12.73;12.03;;;23.20;25.70;;;;;;4937809;29;21016;-74
2022/08/15 03:16:43;;;;;;;11.37;10.83;;;23.20;26.10;;;;;;4937618;28;20481;-74
2022/08/15 03:19:11;;;;;;;12.50;11.90;;;23.20;26.10;;;;;;4937425;29;20928;-74
2022/08/15 03:21:38;;;;;;;12.10;11.50;;;23.10;26.20;;;;;;4937543;29;20415;-74
2022/08/15 03:24:05;;;;;;;12.97;12.07;;;23.10;26.20;;;;;;4937612;29;20526;-74
2022/08/15 03:26:30;;;;;;;12.73;12.13;;;23.20;25.90;;;;;;4937851;29;20427;-74
2022/08/15 03:28:57;;;;;;;13.00;12.03;;;23.10;25.80;;;;;;4937762;29;20435;-74
2022/08/15 03:31:26;;;;;;;12.73;12.13;;;23.00;26.00;;;;;;4937705;29;20628;-74
2022/08/15 03:33:52;;;;;;;12.50;11.50;;;23.00;26.20;;;;;;4954430;29;20462;-74
2022/08/15 03:36:25;;;;;;;12.30;11.80;;;23.00;26.20;;;;;;4937220;29;20488;-74
2022/08/15 03:38:54;;;;;;;12.60;12.10;;;23.10;26.40;;;;;;4937367;29;20222;-74
2022/08/15 03:41:20;;;;;;;12.30;11.70;;;23.00;26.50;;;;;;4937407;29;20458;-74
2022/08/15 03:43:46;;;;;;;13.50;12.80;;;22.90;27.50;;;;;;4937402;29;20442;-74
2022/08/15 03:46:16;;;;;;;12.43;11.93;;;22.80;27.60;;;;;;4937236;29;20427;-74
2022/08/15 03:48:48;;;;;;;12.83;12.23;;;22.90;27.40;;;;;;4937399;29;20494;-74
2022/08/15 03:51:16;;;;;;;13.23;12.53;;;22.90;27.60;;;;;;4936950;29;20427;-74
2022/08/15 03:53:51;;;;;;;13.70;13.00;;;22.90;27.80;;;;;;4936990;29;20470;-74
2022/08/15 03:56:21;;;;;;;12.60;12.10;;;22.90;28.20;;;;;;4937171;29;20430;-74
2022/08/15 03:58:47;;;;;;;13.20;12.57;;;22.80;29.20;;;;;;4936952;29;20507;-75
2022/08/15 04:01:19;;;;;;;13.20;12.20;;;22.80;29.20;;;;;;4936711;29;20461;-75
2022/08/15 04:03:47;;;;;;;13.40;12.57;;;22.80;29.30;;;;;;4937033;29;20485;-74
2022/08/15 04:06:16;;;;;;;13.47;12.90;;;22.80;29.50;;;;;;4936855;29;20430;-74
2022/08/15 04:08:44;;;;;;;13.30;12.70;;;22.80;29.40;;;;;;4936976;29;20505;-74
2022/08/15 04:11:09;;;;;;;13.33;12.63;;;22.90;29.10;;;;;;4937003;29;20848;-75
2022/08/15 04:13:37;;;;;;;14.43;13.37;;;22.90;29.20;;;;;;4937434;29;20470;-74
2022/08/15 04:16:03;;;;;;;13.70;12.87;;;22.80;29.60;;;;;;4936942;29;20419;-74
2022/08/15 04:18:29;;;;;;;13.80;13.17;;;22.80;29.80;;;;;;4936584;29;20497;-74
2022/08/15 04:20:58;;;;;;;13.50;12.80;;;22.80;29.90;;;;;;4937027;29;20422;-74
2022/08/15 04:23:25;;;;;;;14.10;13.40;;;22.70;29.80;;;;;;4937611;29;20453;-71
2022/08/15 04:25:54;;;;;;;14.00;13.30;;;22.50;30.50;;;;;;4936860;29;20425;-73
2022/08/15 04:28:23;;;;;;;14.53;13.83;;;22.50;30.50;;;;;;4943433;28;20471;-74
2022/08/15 04:30:49;;;;;;;13.87;13.07;;;22.50;30.50;;;;;;4939877;29;20415;-73
2022/08/15 04:33:33;;;;;;;13.40;12.90;;;22.40;30.90;;;;;;4958066;28;20458;-74
2022/08/15 04:36:12;;;;;;;13.40;12.70;;;22.30;30.30;;;;;;4940750;28;20422;-74
2022/08/15 04:38:43;;;;;;;13.43;12.63;;;22.30;30.40;;;;;;4940816;29;20414;-74
2022/08/15 04:41:10;;;;;;;13.43;12.93;;;22.20;30.70;;;;;;4941761;28;20445;-74
2022/08/15 04:43:38;;;;;;;13.73;13.10;;;22.30;30.00;;;;;;4959878;28;20778;-74
2022/08/15 04:46:05;;;;;;;13.33;12.80;;;22.20;29.70;;;;;;4977178;28;20422;-74
2022/08/15 04:48:31;;;;;;;13.27;12.77;;;22.20;29.70;;;;;;4960048;28;20430;-74
2022/08/15 04:51:06;;;;;;;14.93;14.33;;;22.10;29.80;;;;;;4957948;28;20457;-74
2022/08/15 04:53:44;;;;;;;13.30;12.80;;;22.10;29.90;;;;;;4940489;29;20476;-74
2022/08/15 04:56:18;;;;;;;12.63;12.13;;;22.10;30.30;;;;;;4925310;29;20430;-74
2022/08/15 04:58:44;;;;;;;13.20;12.60;;;22.10;30.10;;;;;;4940691;29;20427;-74
2022/08/15 05:01:19;;;;;;;13.60;13.00;;;22.00;30.10;;;;;;4940158;29;20791;-74
2022/08/15 05:03:54;;;;;;;12.60;12.10;;;22.00;30.40;;;;;;4940391;29;20454;-74
2022/08/15 05:06:49;;;;;;;14.03;13.23;;;22.00;30.50;;;;;;4940093;29;20426;-74
2022/08/15 05:09:36;;;;;;;14.23;13.63;;;21.90;30.50;;;;;;4863718;29;20806;-74
2022/08/15 05:12:03;;;;;;;13.67;12.50;;;21.80;30.80;;;;;;4883938;29;20511;-74
2022/08/15 05:14:38;;;;;;;13.30;12.60;;;21.70;31.10;;;;;;4920146;29;20424;-74
2022/08/15 05:17:04;;;;;;;13.73;13.13;;;21.80;30.90;;;;;;4921138;29;20423;-74
2022/08/15 05:19:33;;;;;;;14.10;13.50;;;21.70;31.30;;;;;;4921870;28;20424;-74
2022/08/15 05:21:59;;;;;;;13.47;12.87;;;21.70;31.40;;;;;;4940834;29;20455;-74
2022/08/15 05:24:31;;;;;;;14.20;13.17;;;21.80;30.90;;;;;;4943515;29;20426;-74
2022/08/15 05:27:00;;;;;;;13.27;12.77;;;21.80;30.70;;;;;;4959236;28;20237;-74
2022/08/15 05:29:36;;;;;;;13.27;12.77;;;21.80;30.80;;;;;;4959006;28;20422;-74
2022/08/15 05:32:09;;;;;;;13.33;12.73;;;21.80;30.80;;;;;;4958464;28;20461;-74
2022/08/15 05:34:42;;;;;;;13.53;13.00;;;21.60;31.20;;;;;;4958336;28;20485;-74
2022/08/15 05:37:18;;;;;;;14.03;13.53;;;21.70;31.30;;;;;;4939236;28;20529;-74
2022/08/15 05:39:50;;;;;;;14.30;13.43;;;21.60;31.30;;;;;;4939220;28;20466;-74
2022/08/15 05:42:29;;;;;;;15.07;13.97;;;21.60;31.30;;;;;;4938695;28;20431;-74
2022/08/15 05:45:08;;;;;;;13.60;13.00;;;21.60;33.20;;;;;;4938126;29;20983;-74
2022/08/15 05:47:43;;;;;;;14.17;13.67;;;21.60;32.70;;;;;;4939152;29;20725;-74
2022/08/15 05:50:30;;;;;;;14.73;13.80;;;21.60;33.10;;;;;;4938847;29;20434;-74
2022/08/15 05:53:05;;;;;;;13.63;13.03;;;21.60;32.80;;;;;;4938828;29;20477;-74
2022/08/15 05:55:39;;;;;;;14.30;13.53;;;21.60;33.30;;;;;;4939052;29;20426;-74
2022/08/15 05:58:29;;;;;;;14.07;13.47;;;21.60;32.20;;;;;;4938700;29;20486;-75
2022/08/15 06:01:20;;;;;;;13.37;12.90;;;21.60;32.10;;;;;;4938675;29;20425;-74
2022/08/15 06:03:59;;;;;;;14.00;13.50;;;21.60;32.20;;;;;;4954741;28;20433;-74
2022/08/15 06:06:31;;;;;;;14.53;13.93;;;21.60;32.00;;;;;;4958421;28;20430;-74
2022/08/15 06:09:24;;;;;;;14.10;13.60;;;21.60;31.80;;;;;;4951933;28;20521;-74
2022/08/15 06:11:53;;;;;;;10.10;9.60;;;21.60;32.00;;;;;;4955218;28;20451;-74
2022/08/15 06:14:32;;;;;;;12.43;11.93;;;21.50;32.20;;;;;;4938366;29;20430;-74
2022/08/15 06:17:13;;;;;;;13.00;12.40;;;21.70;31.80;;;;;;4930612;29;20440;-74
2022/08/15 06:19:43;;;;;;;13.10;12.60;;;21.70;31.60;;;;;;4954643;28;20427;-74
2022/08/15 06:22:41;;;;;;;12.53;11.50;;;21.60;32.20;;;;;;4938314;29;20427;-74
2022/08/15 06:25:38;;;;;;;14.77;14.17;;;21.60;34.20;;;;;;4938501;28;20419;-74
2022/08/15 06:28:18;;;;;;;11.03;10.63;;;21.50;35.80;;;;;;4923381;28;20510;-74
2022/08/15 06:30:57;;;;;;;11.33;10.90;;;21.50;34.00;;;;;;4938230;29;20434;-74
2022/08/15 06:33:41;;;;;;;11.23;10.70;;;21.40;34.50;;;;;;4939900;28;20472;-74
2022/08/15 06:36:12;;;;;;;12.33;11.83;;;21.50;34.80;;;;;;4949557;28;20506;-74
2022/08/15 06:38:50;;;;;;;13.80;13.13;;;21.50;33.80;;;;;;4955550;28;20918;-74
2022/08/15 06:41:30;;;;;;;12.20;11.60;;;21.50;34.10;;;;;;4937887;29;20438;-74
2022/08/15 06:43:57;;;;;;;11.87;11.07;;;21.60;35.80;;;;;;4938197;29;20483;-74
2022/08/15 06:46:27;;;;;;;11.93;11.43;;;21.60;34.30;;;;;;4939659;28;20423;-74
2022/08/15 06:48:54;;;;;;;10.30;9.80;;;21.70;32.80;;;;;;4954592;28;20474;-74
2022/08/15 06:51:22;;;;;;;13.93;13.33;;;21.70;31.90;;;;;;4937037;28;21148;-74
2022/08/15 06:53:58;;;;;;;11.23;10.83;;;21.60;31.80;;;;;;4936442;29;20565;-74
2022/08/15 06:56:57;;;;;;;12.30;11.70;;;21.60;31.20;;;;;;4937818;29;20419;-74
2022/08/15 06:59:35;;;;;;;14.30;13.60;;;21.60;31.20;;;;;;4938092;29;20462;-74
2022/08/15 07:02:27;;;;;;;12.80;12.20;;;21.70;31.30;;;;;;4938441;29;20433;-74
2022/08/15 07:05:07;;;;;;;13.60;12.90;;;21.90;30.40;;;;;;4951665;28;20778;-74
2022/08/15 07:08:02;;;;;;;12.53;12.03;;;22.00;30.20;;;;;;4939697;28;20423;-74
2022/08/15 07:10:48;;;;;;;11.80;11.33;;;22.00;29.80;;;;;;4938255;29;20423;-74
2022/08/15 07:13:20;;;;;;;11.70;11.30;;;22.00;29.90;;;;;;4938710;28;20471;-75
2022/08/15 07:15:56;;;;;;;12.67;12.17;;;21.90;29.90;;;;;;4938827;29;20430;-75
2022/08/15 07:21:43;;;;;;;12.20;11.70;;;21.90;29.80;;;;;;4933263;28;20421;-75
2022/08/15 07:24:21;;;;;;;11.77;11.37;;;21.90;30.00;;;;;;4957655;28;20737;-76
2022/08/15 07:26:59;;;;;;;12.20;11.80;;;22.00;29.90;;;;;;4957456;28;20804;-77
2022/08/15 07:29:59;;;;;;;12.57;11.73;;;22.10;29.30;;;;;;4957134;28;20414;-77
2022/08/15 07:32:35;;;;;;;12.23;11.70;;;22.20;29.30;;;;;;4922027;29;20471;-77
2022/08/15 07:35:05;;;;;;;10.73;10.30;;;22.30;28.90;;;;;;4936087;29;20407;-77
2022/08/15 07:37:34;;;;;;;10.23;9.83;;;22.40;28.40;;;;;;4933892;29;20446;-77
2022/08/15 07:40:28;;;;;;;13.13;12.37;;;22.40;28.20;;;;;;4937343;29;20437;-72
2022/08/15 07:42:55;;;;;;;13.63;12.80;;;22.50;27.90;;;;;;4928096;29;20427;-72
2022/08/15 07:45:53;;;;;;;10.80;10.20;;;22.60;27.50;;;;;;4937159;28;20419;-71
2022/08/15 07:48:29;;;;;;;11.70;11.23;;;22.70;27.10;;;;;;4929643;29;20454;-72
2022/08/15 07:51:29;;;;;;;10.43;9.90;;;22.70;27.30;;;;;;4938554;28;20427;-72
2022/08/15 07:54:24;;;;;;;10.00;9.70;;;22.80;26.90;;;;;;4973679;28;20822;-72
2022/08/15 07:56:58;;;;;;;12.93;12.43;;;23.00;26.70;;;;;;4956334;28;20414;-72
2022/08/15 07:59:42;;;;;;;11.77;11.37;;;23.10;26.40;;;;;;4957011;28;20418;-71
2022/08/15 08:02:30;;;;;;;12.43;11.90;;;23.20;26.30;;;;;;4959044;28;20440;-71
2022/08/15 08:05:00;;;;;;;13.33;12.80;;;23.20;26.30;;;;;;4956735;28;20538;-72
2022/08/15 08:07:35;;;;;;;11.60;11.20;;;23.10;25.90;;;;;;4938046;28;20447;-72
2022/08/15 08:10:11;;;;;;;13.00;12.50;;;23.10;25.70;;;;;;4946884;28;20488;-72
2022/08/15 08:13:08;;;;;;;12.83;12.23;;;23.00;25.80;;;;;;4956400;28;20802;-72
2022/08/15 08:15:58;;;;;;;10.50;10.10;;;23.00;25.90;;;;;;4973477;28;20418;-72
2022/08/15 08:19:02;;;;;;;11.50;11.10;;;22.90;25.80;;;;;;4973448;28;20402;-72
2022/08/15 08:22:00;;;;;;;12.20;11.77;;;22.90;26.00;;;;;;4955623;28;20790;-72
2022/08/15 08:24:45;;;;;;;11.93;11.53;;;23.00;25.80;;;;;;4894474;29;20439;-72
2022/08/15 08:27:33;;;;;;;11.13;10.73;;;23.10;25.60;;;;;;4936833;28;20777;-72
2022/08/15 08:30:05;;;;;;;12.43;12.03;;;23.30;25.20;;;;;;4936363;28;20427;-72
2022/08/15 08:32:34;;;;;;;11.40;11.00;;;23.40;24.10;;;;;;4936664;29;20466;-72
2022/08/15 08:35:25;;;;;;;11.13;10.73;;;23.40;24.00;;;;;;4936428;28;20505;-72
2022/08/15 08:38:19;;;;;;;10.77;10.27;;;23.50;24.10;;;;;;4950122;28;20437;-72
2022/08/15 08:44:16;;;;;;;12.20;11.70;;;23.60;24.10;;;;;;4964997;28;20490;-73
2022/08/15 08:47:27;;;;;;;12.27;11.80;;;23.80;24.20;;;;;;4936902;29;20423;-74
2022/08/15 08:50:21;;;;;;;11.80;11.30;;;23.90;22.30;;;;;;4953758;28;20421;-74
2022/08/15 08:52:56;;;;;;;12.90;12.40;;;24.00;22.10;;;;;;4936698;29;20470;-72
2022/08/15 08:55:34;;;;;;;11.57;11.17;;;24.00;21.70;;;;;;4936690;29;20489;-72
2022/08/15 08:58:15;;;;;;;11.73;11.33;;;24.10;21.40;;;;;;4936606;28;20418;-72
2022/08/15 09:00:44;;;;;;;11.10;10.70;;;24.10;21.70;;;;;;4936440;29;20415;-72
2022/08/15 09:03:19;;;;;;;12.60;12.20;;;24.20;22.00;;;;;;4936413;28;20431;-72
2022/08/15 09:05:51;;;;;;;12.43;11.93;;;24.20;20.40;;;;;;4936390;29;20422;-72
2022/08/15 09:08:26;;;;;;;11.53;11.13;;;24.20;20.90;;;;;;4936126;29;20953;-72
2022/08/15 09:10:59;;;;;;;12.50;12.10;;;24.30;20.60;;;;;;4936492;29;20505;-73
2022/08/15 09:13:34;;;;;;;11.93;11.43;;;24.30;20.60;;;;;;4953741;29;20458;-72
2022/08/15 09:16:14;;;;;;;13.30;12.83;;;24.30;20.40;;;;;;4937775;29;20418;-73
2022/08/15 09:19:28;;;;;;;12.60;12.20;;;24.40;20.40;;;;;;4926456;29;20436;-72
2022/08/15 09:21:55;;;;;;;11.30;10.90;;;24.60;20.20;;;;;;4899473;29;20415;-72
2022/08/15 09:24:22;;;;;;;12.43;12.03;;;24.60;21.20;;;;;;4958661;29;20913;-72
2022/08/15 09:26:59;;;;;;;13.37;12.77;;;24.70;21.50;;;;;;4958940;29;20974;-75
2022/08/15 09:29:34;;;;;;;11.53;11.13;;;24.70;21.30;;;;;;4939477;29;20461;-74
2022/08/15 09:32:13;;;;;;;12.23;11.73;;;24.70;21.00;;;;;;4938063;28;20937;-74
2022/08/15 09:35:19;;;;;;;12.83;12.43;;;24.60;21.30;;;;;;4947425;28;20473;-73
2022/08/15 09:37:57;;;;;;;12.50;11.80;;;24.60;21.50;;;;;;4958648;28;20420;-74
2022/08/15 09:40:41;;;;;;;13.10;12.60;;;24.70;21.70;;;;;;4958354;28;20417;-73
2022/08/15 09:43:28;;;;;;;12.30;11.80;;;24.90;21.30;;;;;;4958224;28;20426;-73
2022/08/15 09:46:35;;;;;;;12.40;11.90;;;25.00;20.80;;;;;;4958470;28;20422;-73
2022/08/15 09:49:41;;;;;;;12.67;12.17;;;25.10;20.50;;;;;;4958157;28;20433;-74
2022/08/15 09:52:44;;;;;;;12.03;11.53;;;25.20;20.30;;;;;;4958027;28;20467;-74
2022/08/15 09:55:28;;;;;;;13.07;12.37;;;25.40;19.90;;;;;;4958481;28;20414;-74
2022/08/15 09:57:56;;;;;;;11.70;11.10;;;25.60;19.10;;;;;;4958237;28;20418;-73
2022/08/15 10:00:31;;;;;;;12.10;11.70;;;25.70;18.90;;;;;;4958176;28;20442;-74
2022/08/15 10:03:20;;;;;;;12.90;12.20;;;26.00;18.90;;;;;;4958181;28;20468;-74
2022/08/15 10:06:18;;;;;;;11.57;11.17;;;26.00;18.60;;;;;;4958140;28;20915;-74
2022/08/15 10:11:46;;;;;;;12.33;11.83;;;25.80;18.40;;;;;;4916700;29;20991;-75
2022/08/15 10:14:39;;;;;;;11.40;11.00;;;25.80;18.60;;;;;;4920451;29;20858;-75
2022/08/15 10:17:38;;;;;;;13.03;12.53;;;25.80;18.50;;;;;;4895516;29;20428;-75
2022/08/15 10:20:50;;;;;;;;;;;;;;;;;;;;;
2022/08/15 10:23:04;;;;;;;11.93;11.20;;;26.00;18.40;;;;;;4953964;28;20423;-75
2022/08/15 10:25:37;;;;;;;13.10;12.60;;;26.10;17.00;;;;;;4950017;28;20422;-75
2022/08/15 10:28:32;;;;;;;12.37;11.80;;;26.20;17.10;;;;;;4958561;28;20426;-76
2022/08/15 10:31:00;;;;;;;12.53;11.93;;;26.40;17.20;;;;;;4958533;28;20471;-75
2022/08/15 10:33:30;;;;;;;12.00;11.40;;;26.60;17.30;;;;;;4958220;28;21016;-75
2022/08/15 10:36:42;;;;;;;11.97;11.20;;;26.50;17.20;;;;;;4958219;28;20426;-75
2022/08/15 10:39:23;;;;;;;13.53;12.93;;;26.50;17.20;;;;;;4958163;28;20422;-75
2022/08/15 10:42:30;;;;;;;12.90;12.30;;;26.30;17.10;;;;;;4957853;28;20805;-75
2022/08/15 10:45:15;;;;;;;12.90;12.43;;;26.20;17.10;;;;;;4958087;28;20564;-75
2022/08/15 10:48:07;;;;;;;11.60;11.20;;;26.30;16.70;;;;;;4958042;28;20787;-75
2022/08/15 10:50:48;;;;;;;13.07;12.57;;;26.50;16.10;;;;;;4944317;28;20454;-75
2022/08/15 10:53:20;;;;;;;12.47;12.07;;;26.80;14.60;;;;;;4957730;28;20458;-75
2022/08/15 10:55:46;;;;;;;12.47;11.97;;;26.80;14.30;;;;;;4943704;29;20931;-75
2022/08/15 10:58:24;;;;;;;12.07;11.67;;;26.90;14.20;;;;;;4938397;29;20450;-75
2022/08/15 11:00:57;;;;;;;13.20;12.50;;;26.90;14.50;;;;;;4938079;29;20518;-75
2022/08/15 11:03:53;;;;;;;12.57;12.07;;;26.90;14.20;;;;;;4938075;29;21006;-75
2022/08/15 11:06:41;;;;;;;11.93;11.27;;;26.80;14.50;;;;;;4955642;29;20442;-75
2022/08/15 11:09:13;;;;;;;12.23;11.73;;;26.60;15.10;;;;;;4938641;29;20431;-75
2022/08/15 11:11:43;;;;;;;10.10;9.80;;;26.50;15.40;;;;;;4959603;29;20873;-75
2022/08/15 11:14:39;;;;;;;11.53;11.13;;;26.30;15.40;;;;;;4939653;29;20470;-76
2022/08/15 11:17:20;;;;;;;13.27;12.40;;;26.20;15.60;;;;;;4929971;29;20419;-75
2022/08/15 11:23:04;;;;;;;10.30;10.00;;;26.20;15.70;;;;;;4941518;29;20942;-75
2022/08/15 11:25:37;;;;;;;11.30;10.90;;;26.20;15.60;;;;;;4940582;28;20442;-77
2022/08/15 11:28:14;;;;;;;10.70;10.30;;;26.30;15.50;;;;;;4937960;28;20415;-77
2022/08/15 11:31:11;;;;;;;11.60;11.10;;;26.40;14.70;;;;;;4939524;29;20491;-77
2022/08/15 11:33:40;;;;;;;10.20;9.70;;;26.50;14.20;;;;;;4955612;29;20971;-76
2022/08/15 11:36:23;;;;;;;12.40;11.83;;;26.50;14.10;;;;;;4938240;29;20427;-76
2022/08/15 11:39:00;;;;;;;11.70;11.30;;;26.50;14.90;;;;;;4937853;29;20419;-76
2022/08/15 11:41:30;;;;;;;11.60;11.20;;;26.50;15.10;;;;;;4937989;29;20438;-76
2022/08/15 11:43:59;;;;;;;10.73;10.30;;;26.50;15.40;;;;;;4938043;29;20516;-76
2022/08/15 11:46:27;;;;;;;11.10;10.70;;;26.50;15.50;;;;;;4955171;29;20434;-75
2022/08/15 11:49:11;;;;;;;12.07;11.57;;;26.50;15.10;;;;;;4937128;29;20998;-74
2022/08/15 11:51:42;;;;;;;12.60;12.10;;;26.50;14.90;;;;;;4956361;28;20434;-79
2022/08/15 11:54:11;;;;;;;10.47;10.07;;;26.50;14.50;;;;;;4973682;28;20472;-79
2022/08/15 11:57:00;;;;;;;12.33;11.90;;;26.50;14.80;;;;;;4956347;28;20422;-79
2022/08/15 11:59:37;;;;;;;11.50;11.00;;;26.30;14.80;;;;;;4956431;28;20422;-78
2022/08/15 12:02:18;;;;;;;10.90;10.50;;;26.30;14.80;;;;;;4956016;28;20941;-79
2022/08/15 12:04:47;;;;;;;11.73;11.23;;;26.30;14.80;;;;;;4956270;28;20430;-79
2022/08/15 12:07:19;;;;;;;11.57;11.17;;;26.30;14.60;;;;;;4956264;28;20434;-79
2022/08/15 12:10:21;;;;;;;11.47;11.07;;;26.30;14.50;;;;;;4956102;28;20489;-82
2022/08/15 12:13:33;;;;;;;11.10;10.70;;;26.40;14.20;;;;;;4925783;29;20473;-81
2022/08/15 12:17:21;;;;;;;;;;;;;;;;;;;;;
2022/08/15 12:27:10;;;;;;;11.30;10.60;;;26.60;13.40;;;;;;4797488;29;20433;-81
2022/08/15 12:33:12;;;;;;;10.33;9.87;;;26.80;13.70;;;;;;4834512;29;20634;-81
2022/08/15 12:36:08;;;;;;;;;;;;;;;;;;;;;
2022/08/15 12:38:41;;;;;;;11.20;10.73;;;27.00;13.10;;;;;;4884560;29;20778;-80
2022/08/15 12:41:37;;;;;;;11.47;11.07;;;27.00;13.10;;;;;;4879209;29;20922;-82
2022/08/15 12:44:31;;;;;;;12.03;11.43;;;27.10;13.10;;;;;;4893556;29;20477;-83
2022/08/15 12:46:59;;;;;;;10.93;10.47;;;27.00;13.90;;;;;;4926838;28;20429;-77
2022/08/15 12:49:25;;;;;;;11.20;10.70;;;27.10;13.70;;;;;;4973520;28;20414;-76
2022/08/15 12:51:52;;;;;;;9.90;9.40;;;27.00;13.80;;;;;;4964555;28;20445;-77
2022/08/15 12:54:30;;;;;;;10.80;10.30;;;26.90;13.80;;;;;;4940587;28;20202;-77
2022/08/15 12:56:56;;;;;;;10.73;10.13;;;26.80;14.00;;;;;;4939809;28;20526;-77
2022/08/15 12:59:28;;;;;;;10.30;9.90;;;26.70;14.00;;;;;;4940537;29;20652;-77
2022/08/15 13:02:11;;;;;;;11.80;11.40;;;26.60;13.90;;;;;;4942803;28;20185;-78
2022/08/15 13:04:41;;;;;;;11.70;11.20;;;26.60;13.70;;;;;;4959536;28;20568;-79
2022/08/15 13:07:08;;;;;;;12.13;11.63;;;26.50;13.90;;;;;;4946330;28;20458;-79
2022/08/15 13:09:33;;;;;;;10.67;10.17;;;26.50;14.00;;;;;;4957346;28;20461;-84
2022/08/15 13:12:01;;;;;;;10.40;9.80;;;26.50;14.10;;;;;;4939536;28;20438;-85
2022/08/15 13:14:29;;;;;;;12.27;11.57;;;26.50;13.90;;;;;;4939985;29;20266;-84
2022/08/15 13:16:55;;;;;;;10.23;9.83;;;26.40;14.10;;;;;;4939686;29;20526;-83
2022/08/15 13:19:28;;;;;;;11.90;11.50;;;26.40;14.10;;;;;;4939877;28;20419;-83
2022/08/15 13:24:42;;;;;;;10.97;10.50;;;26.30;14.30;;;;;;4948408;28;20434;-81
2022/08/15 13:27:09;;;;;;;10.20;9.80;;;26.30;14.30;;;;;;4955180;28;20448;-78
2022/08/15 13:29:40;;;;;;;11.63;11.03;;;26.30;14.30;;;;;;4955812;28;20426;-79
2022/08/15 13:32:09;;;;;;;11.27;10.87;;;26.40;14.20;;;;;;4939312;29;20435;-80
2022/08/15 13:34:38;;;;;;;12.03;11.00;;;26.30;14.40;;;;;;4942211;29;20429;-81
2022/08/15 13:37:13;;;;;;;11.60;11.10;;;26.30;15.00;;;;;;4942637;29;20431;-81
2022/08/15 13:40:10;;;;;;;11.70;11.10;;;26.30;16.10;;;;;;4962829;28;20538;-81
2022/08/15 13:42:35;;;;;;;11.83;11.13;;;26.30;16.40;;;;;;4970124;28;20918;-80
2022/08/15 13:45:16;;;;;;;11.90;11.40;;;26.30;15.50;;;;;;4967356;28;20426;-83